Fairmead, California
Current Conditions -  °F | °C
As of 8:53 AM on Thursday 30 Oct 2014 (Local Time) from KMAE Reporting Station
Clear Clear  
Wind Chill: 62°   Ceiling: Unl
Heat Index: 62°   Visibility: 8mi
Dew Point: 43°   Wind: 7mph
Humidity: 50%   Direction: 120°ESE
Pressure: 29.99"   Gusts: NA
Location:  37.1043°N, 120.246°W
Report Text: KMAE 301553Z AUTO 12006KT 8SM CLR 17/06 A2999 RMK AO2 SLP152 T01670061
Loading
Personal Weather Stations






























Interactive Weather Map
Tropical Storm Tracking
New forecast layout! Learn more

10-Day Weather Forecast

Advertisements
Track Severe Weather on mobile